sensor_id;sensor_type;location;lat;lon;timestamp;temperature;humidity
29241;DHT22;16268;49.880;8.648;2023-05-10T00:01:12;14.80;99.90
29241;DHT22;16268;49.880;8.648;2023-05-10T00:03:38;14.80;99.90
29241;DHT22;16268;49.880;8.648;2023-05-10T00:06:03;14.70;99.90
29241;DHT22;16268;49.880;8.648;2023-05-10T00:08:29;14.70;99.90
29241;DHT22;16268;49.880;8.648;2023-05-10T00:10:54;14.70;99.90
29241;DHT22;16268;49.880;8.648;2023-05-10T00:13:20;14.70;99.90
29241;DHT22;16268;49.880;8.648;2023-05-10T00:15:46;14.60;99.90
29241;DHT22;16268;49.880;8.648;2023-05-10T00:18:11;14.70;99.90
29241;DHT22;16268;49.880;8.648;2023-05-10T00:20:37;14.60;99.90
29241;DHT22;16268;49.880;8.648;2023-05-10T00:23:02;14.60;99.90
29241;DHT22;16268;49.880;8.648;2023-05-10T00:25:31;14.60;99.90
29241;DHT22;16268;49.880;8.648;2023-05-10T00:27:57;14.60;99.90
29241;DHT22;16268;49.880;8.648;2023-05-10T00:30:25;14.60;99.90
29241;DHT22;16268;49.880;8.648;2023-05-10T00:32:51;14.60;99.90
29241;DHT22;16268;49.880;8.648;2023-05-10T00:35:17;14.60;99.90
29241;DHT22;16268;49.880;8.648;2023-05-10T00:37:42;14.60;99.90
29241;DHT22;16268;49.880;8.648;2023-05-10T00:40:08;14.60;99.90
29241;DHT22;16268;49.880;8.648;2023-05-10T00:42:34;14.60;99.90
29241;DHT22;16268;49.880;8.648;2023-05-10T00:44:59;14.60;99.90
29241;DHT22;16268;49.880;8.648;2023-05-10T00:47:25;14.60;99.90
29241;DHT22;16268;49.880;8.648;2023-05-10T00:49:51;14.60;99.90
29241;DHT22;16268;49.880;8.648;2023-05-10T00:52:16;14.60;99.90
29241;DHT22;16268;49.880;8.648;2023-05-10T00:54:42;14.60;99.90
29241;DHT22;16268;49.880;8.648;2023-05-10T00:57:07;14.60;99.90
29241;DHT22;16268;49.880;8.648;2023-05-10T00:59:33;14.60;99.90
29241;DHT22;16268;49.880;8.648;2023-05-10T01:02:02;14.60;99.90
29241;DHT22;16268;49.880;8.648;2023-05-10T01:04:31;14.60;99.90
29241;DHT22;16268;49.880;8.648;2023-05-10T01:06:56;14.60;99.90
29241;DHT22;16268;49.880;8.648;2023-05-10T01:09:22;14.70;99.90
29241;DHT22;16268;49.880;8.648;2023-05-10T01:11:48;14.70;99.90
29241;DHT22;16268;49.880;8.648;2023-05-10T01:14:18;14.70;99.90
29241;DHT22;16268;49.880;8.648;2023-05-10T01:16:49;14.60;99.90
29241;DHT22;16268;49.880;8.648;2023-05-10T01:19:23;14.60;99.90
29241;DHT22;16268;49.880;8.648;2023-05-10T01:39:20;14.50;99.90
29241;DHT22;16268;49.880;8.648;2023-05-10T01:45:16;14.50;99.90
29241;DHT22;16268;49.880;8.648;2023-05-10T01:47:46;14.40;99.90
29241;DHT22;16268;49.880;8.648;2023-05-10T01:50:24;14.40;99.90
29241;DHT22;16268;49.880;8.648;2023-05-10T01:52:56;14.40;99.90
29241;DHT22;16268;49.880;8.648;2023-05-10T01:55:28;14.30;99.90
29241;DHT22;16268;49.880;8.648;2023-05-10T01:58:03;14.30;99.90
29241;DHT22;16268;49.880;8.648;2023-05-10T02:00:31;14.30;99.90
29241;DHT22;16268;49.880;8.648;2023-05-10T02:02:57;14.20;99.90
29241;DHT22;16268;49.880;8.648;2023-05-10T02:05:23;14.20;99.90
29241;DHT22;16268;49.880;8.648;2023-05-10T02:07:53;14.20;99.90
29241;DHT22;16268;49.880;8.648;2023-05-10T02:10:19;14.10;99.90
29241;DHT22;16268;49.880;8.648;2023-05-10T02:12:47;14.10;99.90
29241;DHT22;16268;49.880;8.648;2023-05-10T02:15:19;14.10;99.90
29241;DHT22;16268;49.880;8.648;2023-05-10T02:17:47;14.00;99.90
29241;DHT22;16268;49.880;8.648;2023-05-10T02:20:16;14.00;99.90
29241;DHT22;16268;49.880;8.648;2023-05-10T02:22:44;14.00;99.90
29241;DHT22;16268;49.880;8.648;2023-05-10T02:25:14;14.00;99.90
29241;DHT22;16268;49.880;8.648;2023-05-10T02:27:41;14.00;99.90
29241;DHT22;16268;49.880;8.648;2023-05-10T02:30:08;14.00;99.90
29241;DHT22;16268;49.880;8.648;2023-05-10T02:32:35;14.00;99.90
29241;DHT22;16268;49.880;8.648;2023-05-10T02:35:06;14.00;99.90
29241;DHT22;16268;49.880;8.648;2023-05-10T02:37:33;14.00;99.90
29241;DHT22;16268;49.880;8.648;2023-05-10T02:40:00;14.00;99.90
29241;DHT22;16268;49.880;8.648;2023-05-10T02:42:32;14.00;99.90
29241;DHT22;16268;49.880;8.648;2023-05-10T02:45:01;13.90;99.90
29241;DHT22;16268;49.880;8.648;2023-05-10T02:47:28;13.90;99.90
29241;DHT22;16268;49.880;8.648;2023-05-10T02:49:54;13.90;99.90
29241;DHT22;16268;49.880;8.648;2023-05-10T02:52:44;13.90;99.90
29241;DHT22;16268;49.880;8.648;2023-05-10T02:55:09;13.90;99.90
29241;DHT22;16268;49.880;8.648;2023-05-10T02:57:45;14.00;99.90
29241;DHT22;16268;49.880;8.648;2023-05-10T03:00:15;13.90;99.90
29241;DHT22;16268;49.880;8.648;2023-05-10T03:02:41;13.90;99.90
29241;DHT22;16268;49.880;8.648;2023-05-10T03:05:07;13.90;99.90
29241;DHT22;16268;49.880;8.648;2023-05-10T03:07:33;13.90;99.90
29241;DHT22;16268;49.880;8.648;2023-05-10T03:09:59;13.90;99.90
29241;DHT22;16268;49.880;8.648;2023-05-10T03:15:31;13.90;99.90
29241;DHT22;16268;49.880;8.648;2023-05-10T03:18:21;13.80;99.90
29241;DHT22;16268;49.880;8.648;2023-05-10T03:20:49;13.80;99.90
29241;DHT22;16268;49.880;8.648;2023-05-10T03:23:22;13.80;99.90
29241;DHT22;16268;49.880;8.648;2023-05-10T03:25:52;13.80;99.90
29241;DHT22;16268;49.880;8.648;2023-05-10T03:28:18;13.80;99.90
29241;DHT22;16268;49.880;8.648;2023-05-10T03:30:46;13.80;99.90
29241;DHT22;16268;49.880;8.648;2023-05-10T03:33:12;13.80;99.90
29241;DHT22;16268;49.880;8.648;2023-05-10T03:35:38;13.80;99.90
29241;DHT22;16268;49.880;8.648;2023-05-10T03:38:04;13.80;99.90
29241;DHT22;16268;49.880;8.648;2023-05-10T03:40:30;13.80;99.90
29241;DHT22;16268;49.880;8.648;2023-05-10T03:42:57;13.80;99.90
29241;DHT22;16268;49.880;8.648;2023-05-10T03:45:23;13.80;99.90
29241;DHT22;16268;49.880;8.648;2023-05-10T03:47:49;13.80;99.90
29241;DHT22;16268;49.880;8.648;2023-05-10T03:50:14;13.70;99.90
29241;DHT22;16268;49.880;8.648;2023-05-10T03:52:40;13.70;99.90
29241;DHT22;16268;49.880;8.648;2023-05-10T03:55:06;13.80;99.90
29241;DHT22;16268;49.880;8.648;2023-05-10T03:57:32;13.80;99.90
29241;DHT22;16268;49.880;8.648;2023-05-10T03:59:57;13.80;99.90
29241;DHT22;16268;49.880;8.648;2023-05-10T04:02:23;13.80;99.90
29241;DHT22;16268;49.880;8.648;2023-05-10T04:04:50;13.80;99.90
29241;DHT22;16268;49.880;8.648;2023-05-10T04:07:19;13.80;99.90
29241;DHT22;16268;49.880;8.648;2023-05-10T04:09:44;13.90;99.90
29241;DHT22;16268;49.880;8.648;2023-05-10T04:12:10;13.90;99.90
29241;DHT22;16268;49.880;8.648;2023-05-10T04:14:36;13.90;99.90
29241;DHT22;16268;49.880;8.648;2023-05-10T04:17:02;13.90;99.90
29241;DHT22;16268;49.880;8.648;2023-05-10T04:19:31;14.00;99.90
29241;DHT22;16268;49.880;8.648;2023-05-10T04:21:57;13.90;99.90
29241;DHT22;16268;49.880;8.648;2023-05-10T04:24:23;14.00;99.90
29241;DHT22;16268;49.880;8.648;2023-05-10T04:26:49;13.90;99.90
29241;DHT22;16268;49.880;8.648;2023-05-10T04:29:14;13.90;99.90
29241;DHT22;16268;49.880;8.648;2023-05-10T04:31:40;13.90;99.90
29241;DHT22;16268;49.880;8.648;2023-05-10T04:34:06;13.90;99.90
29241;DHT22;16268;49.880;8.648;2023-05-10T04:36:31;14.00;99.90
29241;DHT22;16268;49.880;8.648;2023-05-10T04:39:01;14.00;99.90
29241;DHT22;16268;49.880;8.648;2023-05-10T04:41:28;14.10;99.90
29241;DHT22;16268;49.880;8.648;2023-05-10T04:43:53;14.00;99.90
29241;DHT22;16268;49.880;8.648;2023-05-10T04:46:19;14.10;99.90
29241;DHT22;16268;49.880;8.648;2023-05-10T04:48:45;14.00;99.90
29241;DHT22;16268;49.880;8.648;2023-05-10T04:51:10;14.00;99.90
29241;DHT22;16268;49.880;8.648;2023-05-10T04:53:36;13.90;99.90
29241;DHT22;16268;49.880;8.648;2023-05-10T04:56:01;14.00;99.90
29241;DHT22;16268;49.880;8.648;2023-05-10T04:58:27;14.00;99.90
29241;DHT22;16268;49.880;8.648;2023-05-10T05:00:53;14.00;99.90
29241;DHT22;16268;49.880;8.648;2023-05-10T05:03:18;14.00;99.90
29241;DHT22;16268;49.880;8.648;2023-05-10T05:05:44;14.00;99.90
29241;DHT22;16268;49.880;8.648;2023-05-10T05:08:10;14.10;99.90
29241;DHT22;16268;49.880;8.648;2023-05-10T05:10:35;14.10;99.90
29241;DHT22;16268;49.880;8.648;2023-05-10T05:13:01;14.10;99.90
29241;DHT22;16268;49.880;8.648;2023-05-10T05:15:27;14.10;99.90
29241;DHT22;16268;49.880;8.648;2023-05-10T05:17:53;14.20;99.90
29241;DHT22;16268;49.880;8.648;2023-05-10T05:20:18;14.10;99.90
29241;DHT22;16268;49.880;8.648;2023-05-10T05:22:50;14.10;99.90
29241;DHT22;16268;49.880;8.648;2023-05-10T05:25:15;14.20;99.90
29241;DHT22;16268;49.880;8.648;2023-05-10T05:27:41;14.20;99.90
29241;DHT22;16268;49.880;8.648;2023-05-10T05:30:07;14.20;99.90
29241;DHT22;16268;49.880;8.648;2023-05-10T05:32:33;14.20;99.90
29241;DHT22;16268;49.880;8.648;2023-05-10T05:34:59;14.20;99.90
29241;DHT22;16268;49.880;8.648;2023-05-10T05:37:24;14.20;99.90
29241;DHT22;16268;49.880;8.648;2023-05-10T05:39:50;14.20;99.90
29241;DHT22;16268;49.880;8.648;2023-05-10T05:42:15;14.30;99.90
29241;DHT22;16268;49.880;8.648;2023-05-10T05:44:43;14.40;99.90
29241;DHT22;16268;49.880;8.648;2023-05-10T05:47:09;14.40;99.90
29241;DHT22;16268;49.880;8.648;2023-05-10T05:49:34;14.40;99.90
29241;DHT22;16268;49.880;8.648;2023-05-10T05:52:01;14.50;99.90
29241;DHT22;16268;49.880;8.648;2023-05-10T05:54:27;14.60;99.90
29241;DHT22;16268;49.880;8.648;2023-05-10T05:57:00;14.70;99.90
29241;DHT22;16268;49.880;8.648;2023-05-10T05:59:26;14.80;99.90
29241;DHT22;16268;49.880;8.648;2023-05-10T06:01:52;14.90;99.90
29241;DHT22;16268;49.880;8.648;2023-05-10T06:04:18;15.00;99.90
29241;DHT22;16268;49.880;8.648;2023-05-10T06:06:44;15.00;99.90
29241;DHT22;16268;49.880;8.648;2023-05-10T06:09:10;15.10;99.90
29241;DHT22;16268;49.880;8.648;2023-05-10T06:11:36;15.10;99.90
29241;DHT22;16268;49.880;8.648;2023-05-10T06:14:03;15.30;99.90
29241;DHT22;16268;49.880;8.648;2023-05-10T06:16:30;15.40;99.90
29241;DHT22;16268;49.880;8.648;2023-05-10T06:18:56;15.40;99.90
29241;DHT22;16268;49.880;8.648;2023-05-10T06:21:21;15.50;99.90
29241;DHT22;16268;49.880;8.648;2023-05-10T06:23:47;15.80;99.90
29241;DHT22;16268;49.880;8.648;2023-05-10T06:26:12;16.00;99.90
29241;DHT22;16268;49.880;8.648;2023-05-10T06:28:39;16.30;99.90
29241;DHT22;16268;49.880;8.648;2023-05-10T06:31:05;16.40;99.90
29241;DHT22;16268;49.880;8.648;2023-05-10T06:33:30;16.50;99.90
29241;DHT22;16268;49.880;8.648;2023-05-10T06:35:56;16.50;99.90
29241;DHT22;16268;49.880;8.648;2023-05-10T06:38:22;16.30;99.90
29241;DHT22;16268;49.880;8.648;2023-05-10T06:40:48;16.10;99.90
29241;DHT22;16268;49.880;8.648;2023-05-10T06:43:13;16.00;99.90
29241;DHT22;16268;49.880;8.648;2023-05-10T06:45:39;16.00;99.90
29241;DHT22;16268;49.880;8.648;2023-05-10T06:48:04;15.90;99.90
29241;DHT22;16268;49.880;8.648;2023-05-10T06:50:30;15.80;99.90
29241;DHT22;16268;49.880;8.648;2023-05-10T06:52:56;15.90;99.90
29241;DHT22;16268;49.880;8.648;2023-05-10T06:55:21;16.00;99.90
29241;DHT22;16268;49.880;8.648;2023-05-10T06:57:47;16.10;99.90
29241;DHT22;16268;49.880;8.648;2023-05-10T07:00:13;16.10;99.90
29241;DHT22;16268;49.880;8.648;2023-05-10T07:02:39;16.20;99.90
29241;DHT22;16268;49.880;8.648;2023-05-10T07:05:05;16.40;99.90
29241;DHT22;16268;49.880;8.648;2023-05-10T07:07:31;16.20;99.90
29241;DHT22;16268;49.880;8.648;2023-05-10T07:09:57;16.30;99.90
29241;DHT22;16268;49.880;8.648;2023-05-10T07:12:23;16.20;99.90
29241;DHT22;16268;49.880;8.648;2023-05-10T07:14:49;16.30;99.90
29241;DHT22;16268;49.880;8.648;2023-05-10T07:17:14;16.40;99.90
29241;DHT22;16268;49.880;8.648;2023-05-10T07:19:40;16.50;99.90
29241;DHT22;16268;49.880;8.648;2023-05-10T07:22:06;16.50;99.90
29241;DHT22;16268;49.880;8.648;2023-05-10T07:24:33;16.50;99.90
29241;DHT22;16268;49.880;8.648;2023-05-10T07:26:58;16.50;99.90
29241;DHT22;16268;49.880;8.648;2023-05-10T07:29:25;16.40;99.90
29241;DHT22;16268;49.880;8.648;2023-05-10T07:31:50;16.60;99.90
29241;DHT22;16268;49.880;8.648;2023-05-10T07:34:16;16.70;99.90
29241;DHT22;16268;49.880;8.648;2023-05-10T07:36:42;16.90;99.90
29241;DHT22;16268;49.880;8.648;2023-05-10T07:39:07;16.90;99.90
29241;DHT22;16268;49.880;8.648;2023-05-10T07:41:33;17.00;99.90
29241;DHT22;16268;49.880;8.648;2023-05-10T07:43:59;17.10;99.90
29241;DHT22;16268;49.880;8.648;2023-05-10T07:46:25;17.30;99.90
29241;DHT22;16268;49.880;8.648;2023-05-10T07:48:50;17.60;99.90
29241;DHT22;16268;49.880;8.648;2023-05-10T07:51:16;17.90;99.90
29241;DHT22;16268;49.880;8.648;2023-05-10T07:53:41;18.40;99.90
29241;DHT22;16268;49.880;8.648;2023-05-10T07:56:30;19.00;99.90
29241;DHT22;16268;49.880;8.648;2023-05-10T07:58:58;19.00;99.90
29241;DHT22;16268;49.880;8.648;2023-05-10T08:01:25;18.40;99.90
29241;DHT22;16268;49.880;8.648;2023-05-10T08:03:51;18.30;99.90
29241;DHT22;16268;49.880;8.648;2023-05-10T08:06:17;18.00;99.90
29241;DHT22;16268;49.880;8.648;2023-05-10T08:08:43;18.20;99.90
29241;DHT22;16268;49.880;8.648;2023-05-10T08:11:11;18.30;99.90
29241;DHT22;16268;49.880;8.648;2023-05-10T08:13:36;18.20;99.90
29241;DHT22;16268;49.880;8.648;2023-05-10T08:16:02;18.30;99.90
29241;DHT22;16268;49.880;8.648;2023-05-10T08:18:28;17.90;99.90
29241;DHT22;16268;49.880;8.648;2023-05-10T08:20:53;17.80;99.90
29241;DHT22;16268;49.880;8.648;2023-05-10T08:23:19;17.50;99.90
29241;DHT22;16268;49.880;8.648;2023-05-10T08:25:44;17.50;99.90
29241;DHT22;16268;49.880;8.648;2023-05-10T08:28:10;17.40;99.90
29241;DHT22;16268;49.880;8.648;2023-05-10T08:30:36;17.30;99.90
29241;DHT22;16268;49.880;8.648;2023-05-10T08:33:01;17.10;99.90
29241;DHT22;16268;49.880;8.648;2023-05-10T08:35:27;17.00;99.90
29241;DHT22;16268;49.880;8.648;2023-05-10T08:37:52;16.80;99.90
29241;DHT22;16268;49.880;8.648;2023-05-10T08:40:19;16.50;99.90
29241;DHT22;16268;49.880;8.648;2023-05-10T08:42:51;16.40;99.90
29241;DHT22;16268;49.880;8.648;2023-05-10T08:45:21;16.20;99.90
29241;DHT22;16268;49.880;8.648;2023-05-10T08:47:48;16.00;99.90
29241;DHT22;16268;49.880;8.648;2023-05-10T08:50:15;15.80;99.90
29241;DHT22;16268;49.880;8.648;2023-05-10T08:52:41;15.90;99.90
29241;DHT22;16268;49.880;8.648;2023-05-10T08:55:07;16.00;99.90
29241;DHT22;16268;49.880;8.648;2023-05-10T08:57:33;16.10;99.90
29241;DHT22;16268;49.880;8.648;2023-05-10T09:00:00;16.40;99.90
29241;DHT22;16268;49.880;8.648;2023-05-10T09:02:26;16.70;99.90
29241;DHT22;16268;49.880;8.648;2023-05-10T09:04:52;17.20;99.90
29241;DHT22;16268;49.880;8.648;2023-05-10T09:07:18;17.70;99.90
29241;DHT22;16268;49.880;8.648;2023-05-10T09:09:46;18.00;99.90
29241;DHT22;16268;49.880;8.648;2023-05-10T09:12:12;17.90;99.90
29241;DHT22;16268;49.880;8.648;2023-05-10T09:14:38;17.80;99.90
29241;DHT22;16268;49.880;8.648;2023-05-10T09:17:04;18.00;99.90
29241;DHT22;16268;49.880;8.648;2023-05-10T09:19:30;17.80;99.90
29241;DHT22;16268;49.880;8.648;2023-05-10T09:21:55;17.90;99.90
29241;DHT22;16268;49.880;8.648;2023-05-10T09:24:25;18.20;99.90
29241;DHT22;16268;49.880;8.648;2023-05-10T09:26:52;18.30;99.90
29241;DHT22;16268;49.880;8.648;2023-05-10T09:29:17;18.50;99.90
29241;DHT22;16268;49.880;8.648;2023-05-10T09:31:50;18.80;99.90
29241;DHT22;16268;49.880;8.648;2023-05-10T09:34:30;19.00;99.90
29241;DHT22;16268;49.880;8.648;2023-05-10T09:36:58;19.20;99.90
29241;DHT22;16268;49.880;8.648;2023-05-10T09:42:01;19.40;99.90
29241;DHT22;16268;49.880;8.648;2023-05-10T09:44:29;18.80;99.90
29241;DHT22;16268;49.880;8.648;2023-05-10T09:46:54;18.30;99.90
29241;DHT22;16268;49.880;8.648;2023-05-10T09:49:21;18.00;99.90
29241;DHT22;16268;49.880;8.648;2023-05-10T09:51:47;17.60;99.90
29241;DHT22;16268;49.880;8.648;2023-05-10T09:54:14;17.30;99.90
29241;DHT22;16268;49.880;8.648;2023-05-10T09:56:40;17.30;99.90
29241;DHT22;16268;49.880;8.648;2023-05-10T09:59:09;17.30;99.90
29241;DHT22;16268;49.880;8.648;2023-05-10T10:01:35;17.20;99.90
29241;DHT22;16268;49.880;8.648;2023-05-10T10:04:05;17.40;99.90
29241;DHT22;16268;49.880;8.648;2023-05-10T10:06:35;17.50;99.90
29241;DHT22;16268;49.880;8.648;2023-05-10T10:09:02;17.40;99.90
29241;DHT22;16268;49.880;8.648;2023-05-10T10:11:28;17.60;99.90
29241;DHT22;16268;49.880;8.648;2023-05-10T10:13:54;17.70;99.90
29241;DHT22;16268;49.880;8.648;2023-05-10T10:16:20;17.70;99.90
29241;DHT22;16268;49.880;8.648;2023-05-10T10:18:46;17.80;99.90
29241;DHT22;16268;49.880;8.648;2023-05-10T10:21:13;17.80;99.90
29241;DHT22;16268;49.880;8.648;2023-05-10T10:23:40;17.80;99.90
29241;DHT22;16268;49.880;8.648;2023-05-10T10:26:06;17.80;99.90
29241;DHT22;16268;49.880;8.648;2023-05-10T10:31:45;17.80;99.90
29241;DHT22;16268;49.880;8.648;2023-05-10T10:34:25;18.00;99.90
29241;DHT22;16268;49.880;8.648;2023-05-10T10:36:52;18.10;99.90
29241;DHT22;16268;49.880;8.648;2023-05-10T10:39:18;18.30;99.90
29241;DHT22;16268;49.880;8.648;2023-05-10T10:41:57;18.40;99.90
29241;DHT22;16268;49.880;8.648;2023-05-10T10:52:26;18.30;99.90
29241;DHT22;16268;49.880;8.648;2023-05-10T10:55:05;18.20;99.90
29241;DHT22;16268;49.880;8.648;2023-05-10T10:57:35;17.80;99.90
29241;DHT22;16268;49.880;8.648;2023-05-10T11:00:29;17.70;99.90
29241;DHT22;16268;49.880;8.648;2023-05-10T11:08:09;18.20;99.90
29241;DHT22;16268;49.880;8.648;2023-05-10T11:10:35;18.10;99.90
29241;DHT22;16268;49.880;8.648;2023-05-10T11:13:08;18.00;99.90
29241;DHT22;16268;49.880;8.648;2023-05-10T11:15:37;17.80;99.90
29241;DHT22;16268;49.880;8.648;2023-05-10T11:18:29;17.50;99.90
29241;DHT22;16268;49.880;8.648;2023-05-10T11:21:01;17.20;99.90
29241;DHT22;16268;49.880;8.648;2023-05-10T11:23:49;17.10;99.90
29241;DHT22;16268;49.880;8.648;2023-05-10T11:26:15;17.00;99.90
29241;DHT22;16268;49.880;8.648;2023-05-10T11:28:44;17.10;99.90
29241;DHT22;16268;49.880;8.648;2023-05-10T11:31:10;17.10;99.90
29241;DHT22;16268;49.880;8.648;2023-05-10T11:33:48;17.40;99.90
29241;DHT22;16268;49.880;8.648;2023-05-10T11:36:16;17.70;99.90
29241;DHT22;16268;49.880;8.648;2023-05-10T11:38:42;18.20;99.90
29241;DHT22;16268;49.880;8.648;2023-05-10T11:41:09;18.60;99.90
29241;DHT22;16268;49.880;8.648;2023-05-10T11:43:35;19.20;99.90
29241;DHT22;16268;49.880;8.648;2023-05-10T11:46:07;19.80;99.90
29241;DHT22;16268;49.880;8.648;2023-05-10T11:48:33;20.30;99.90
29241;DHT22;16268;49.880;8.648;2023-05-10T11:51:00;20.60;99.90
29241;DHT22;16268;49.880;8.648;2023-05-10T11:53:27;20.90;99.90
29241;DHT22;16268;49.880;8.648;2023-05-10T11:55:53;20.90;99.90
29241;DHT22;16268;49.880;8.648;2023-05-10T11:58:19;20.80;99.90
29241;DHT22;16268;49.880;8.648;2023-05-10T12:00:46;20.70;99.90
29241;DHT22;16268;49.880;8.648;2023-05-10T12:03:12;20.40;99.90
29241;DHT22;16268;49.880;8.648;2023-05-10T12:05:38;20.30;99.90
29241;DHT22;16268;49.880;8.648;2023-05-10T12:08:13;20.50;99.90
29241;DHT22;16268;49.880;8.648;2023-05-10T12:10:38;21.10;99.90
29241;DHT22;16268;49.880;8.648;2023-05-10T12:13:04;21.50;99.90
29241;DHT22;16268;49.880;8.648;2023-05-10T12:15:30;21.50;99.90
29241;DHT22;16268;49.880;8.648;2023-05-10T12:17:56;21.60;99.90
29241;DHT22;16268;49.880;8.648;2023-05-10T12:20:23;21.50;99.90
29241;DHT22;16268;49.880;8.648;2023-05-10T12:22:52;21.30;99.90
29241;DHT22;16268;49.880;8.648;2023-05-10T12:25:23;20.80;99.90
29241;DHT22;16268;49.880;8.648;2023-05-10T12:27:53;20.50;99.90
29241;DHT22;16268;49.880;8.648;2023-05-10T12:30:24;20.50;99.90
29241;DHT22;16268;49.880;8.648;2023-05-10T12:32:50;20.40;99.90
29241;DHT22;16268;49.880;8.648;2023-05-10T12:35:19;20.00;99.90
29241;DHT22;16268;49.880;8.648;2023-05-10T12:37:50;20.10;99.90
29241;DHT22;16268;49.880;8.648;2023-05-10T12:40:15;20.30;99.90
29241;DHT22;16268;49.880;8.648;2023-05-10T12:42:41;20.50;99.90
29241;DHT22;16268;49.880;8.648;2023-05-10T12:45:08;20.80;99.90
29241;DHT22;16268;49.880;8.648;2023-05-10T12:47:34;20.90;99.90
29241;DHT22;16268;49.880;8.648;2023-05-10T12:50:01;21.00;99.90
29241;DHT22;16268;49.880;8.648;2023-05-10T12:52:28;21.10;99.90
29241;DHT22;16268;49.880;8.648;2023-05-10T12:54:53;21.40;99.90
29241;DHT22;16268;49.880;8.648;2023-05-10T12:57:22;21.40;99.90
29241;DHT22;16268;49.880;8.648;2023-05-10T12:59:48;21.50;99.90
29241;DHT22;16268;49.880;8.648;2023-05-10T13:02:14;21.40;99.90
29241;DHT22;16268;49.880;8.648;2023-05-10T13:04:40;21.40;99.90
29241;DHT22;16268;49.880;8.648;2023-05-10T13:07:07;21.20;99.90
29241;DHT22;16268;49.880;8.648;2023-05-10T13:09:33;21.10;99.90
29241;DHT22;16268;49.880;8.648;2023-05-10T13:11:58;21.00;99.90
29241;DHT22;16268;49.880;8.648;2023-05-10T13:14:24;20.90;99.90
29241;DHT22;16268;49.880;8.648;2023-05-10T13:16:50;20.80;99.90
29241;DHT22;16268;49.880;8.648;2023-05-10T13:19:16;20.70;99.90
29241;DHT22;16268;49.880;8.648;2023-05-10T13:21:42;20.60;99.90
29241;DHT22;16268;49.880;8.648;2023-05-10T13:24:10;20.40;99.90
29241;DHT22;16268;49.880;8.648;2023-05-10T13:26:36;20.20;99.90
29241;DHT22;16268;49.880;8.648;2023-05-10T13:29:02;20.10;99.90
29241;DHT22;16268;49.880;8.648;2023-05-10T13:31:27;20.10;99.90
29241;DHT22;16268;49.880;8.648;2023-05-10T13:33:53;19.90;99.90
29241;DHT22;16268;49.880;8.648;2023-05-10T13:36:18;19.80;99.90
29241;DHT22;16268;49.880;8.648;2023-05-10T13:38:44;19.80;99.90
29241;DHT22;16268;49.880;8.648;2023-05-10T13:41:10;19.80;99.90
29241;DHT22;16268;49.880;8.648;2023-05-10T13:43:35;19.90;99.90
29241;DHT22;16268;49.880;8.648;2023-05-10T13:46:01;20.00;99.90
29241;DHT22;16268;49.880;8.648;2023-05-10T13:48:28;20.10;99.90
29241;DHT22;16268;49.880;8.648;2023-05-10T13:50:53;20.40;99.90
29241;DHT22;16268;49.880;8.648;2023-05-10T13:53:19;20.60;99.90
29241;DHT22;16268;49.880;8.648;2023-05-10T13:55:44;20.60;99.90
29241;DHT22;16268;49.880;8.648;2023-05-10T13:58:10;20.70;99.90
29241;DHT22;16268;49.880;8.648;2023-05-10T14:00:36;20.70;99.90
29241;DHT22;16268;49.880;8.648;2023-05-10T14:03:01;20.80;99.90
29241;DHT22;16268;49.880;8.648;2023-05-10T14:05:27;20.60;99.90
29241;DHT22;16268;49.880;8.648;2023-05-10T14:07:53;20.60;99.90
29241;DHT22;16268;49.880;8.648;2023-05-10T14:10:19;20.50;99.90
29241;DHT22;16268;49.880;8.648;2023-05-10T14:12:44;20.40;99.90
29241;DHT22;16268;49.880;8.648;2023-05-10T14:15:10;20.50;99.90
29241;DHT22;16268;49.880;8.648;2023-05-10T14:17:36;20.60;99.90
29241;DHT22;16268;49.880;8.648;2023-05-10T14:20:02;20.70;99.90
29241;DHT22;16268;49.880;8.648;2023-05-10T14:22:29;20.60;99.90
29241;DHT22;16268;49.880;8.648;2023-05-10T14:24:54;20.30;99.90
29241;DHT22;16268;49.880;8.648;2023-05-10T14:27:20;20.30;99.90
29241;DHT22;16268;49.880;8.648;2023-05-10T14:29:47;20.00;99.90
29241;DHT22;16268;49.880;8.648;2023-05-10T14:32:12;19.90;99.90
29241;DHT22;16268;49.880;8.648;2023-05-10T14:34:38;19.60;99.90
29241;DHT22;16268;49.880;8.648;2023-05-10T14:37:03;19.50;99.90
29241;DHT22;16268;49.880;8.648;2023-05-10T14:39:29;19.20;99.90
29241;DHT22;16268;49.880;8.648;2023-05-10T14:41:55;19.00;99.90
29241;DHT22;16268;49.880;8.648;2023-05-10T14:44:21;19.00;99.90
29241;DHT22;16268;49.880;8.648;2023-05-10T14:46:47;19.30;99.90
29241;DHT22;16268;49.880;8.648;2023-05-10T14:49:13;19.60;99.90
29241;DHT22;16268;49.880;8.648;2023-05-10T14:51:39;19.70;99.90
29241;DHT22;16268;49.880;8.648;2023-05-10T14:54:04;19.70;99.90
29241;DHT22;16268;49.880;8.648;2023-05-10T14:56:31;19.90;99.90
29241;DHT22;16268;49.880;8.648;2023-05-10T14:58:57;20.00;99.90
29241;DHT22;16268;49.880;8.648;2023-05-10T15:01:22;20.10;99.90
29241;DHT22;16268;49.880;8.648;2023-05-10T15:03:48;20.10;99.90
29241;DHT22;16268;49.880;8.648;2023-05-10T15:06:14;20.20;99.90
29241;DHT22;16268;49.880;8.648;2023-05-10T15:08:41;20.10;99.90
29241;DHT22;16268;49.880;8.648;2023-05-10T15:11:07;20.10;99.90
29241;DHT22;16268;49.880;8.648;2023-05-10T15:13:32;20.20;99.90
29241;DHT22;16268;49.880;8.648;2023-05-10T15:15:58;20.10;99.90
29241;DHT22;16268;49.880;8.648;2023-05-10T15:18:23;20.00;99.90
29241;DHT22;16268;49.880;8.648;2023-05-10T15:20:49;20.10;99.90
29241;DHT22;16268;49.880;8.648;2023-05-10T15:23:14;20.20;99.90
29241;DHT22;16268;49.880;8.648;2023-05-10T15:25:40;20.30;99.90
29241;DHT22;16268;49.880;8.648;2023-05-10T15:28:06;20.00;99.90
29241;DHT22;16268;49.880;8.648;2023-05-10T15:30:31;20.20;99.90
29241;DHT22;16268;49.880;8.648;2023-05-10T15:32:57;20.10;99.90
29241;DHT22;16268;49.880;8.648;2023-05-10T15:35:22;20.10;99.90
29241;DHT22;16268;49.880;8.648;2023-05-10T15:37:48;20.20;99.90
29241;DHT22;16268;49.880;8.648;2023-05-10T15:40:14;20.30;99.90
29241;DHT22;16268;49.880;8.648;2023-05-10T15:42:40;20.10;99.90
29241;DHT22;16268;49.880;8.648;2023-05-10T15:45:06;20.10;99.90
29241;DHT22;16268;49.880;8.648;2023-05-10T15:47:32;20.00;99.90
29241;DHT22;16268;49.880;8.648;2023-05-10T15:49:58;19.90;99.90
29241;DHT22;16268;49.880;8.648;2023-05-10T15:52:23;19.80;99.90
29241;DHT22;16268;49.880;8.648;2023-05-10T15:54:49;19.80;99.90
29241;DHT22;16268;49.880;8.648;2023-05-10T15:57:15;19.70;99.90
29241;DHT22;16268;49.880;8.648;2023-05-10T15:59:41;19.70;99.90
29241;DHT22;16268;49.880;8.648;2023-05-10T16:02:08;19.60;99.90
29241;DHT22;16268;49.880;8.648;2023-05-10T16:04:35;19.60;99.90
29241;DHT22;16268;49.880;8.648;2023-05-10T16:07:01;19.50;99.90
29241;DHT22;16268;49.880;8.648;2023-05-10T16:09:27;19.50;99.90
29241;DHT22;16268;49.880;8.648;2023-05-10T16:11:52;19.50;99.90